createdAt,value
2017-10-22T00:00:06.277Z,20.00
2017-10-22T00:01:11.142Z,20.00
2017-10-22T00:02:15.932Z,20.00
2017-10-22T00:03:20.736Z,20.00
2017-10-22T00:04:25.605Z,20.00
2017-10-22T00:05:31.452Z,20.00
2017-10-22T00:06:36.099Z,20.00
2017-10-22T00:07:40.999Z,20.00
2017-10-22T00:08:45.674Z,20.00
2017-10-22T00:09:50.505Z,20.00
2017-10-22T00:10:55.352Z,20.00
2017-10-22T00:12:00.221Z,20.00
2017-10-22T00:13:05.189Z,20.00
2017-10-22T00:14:09.959Z,20.00
2017-10-22T00:15:14.628Z,20.00
2017-10-22T00:16:19.545Z,20.00
2017-10-22T00:17:24.633Z,20.00
2017-10-22T00:18:29.443Z,20.00
2017-10-22T00:19:34.268Z,20.00
2017-10-22T00:20:39.010Z,20.00
2017-10-22T00:21:43.904Z,19.90
2017-10-22T00:22:48.725Z,20.00
2017-10-22T00:23:53.568Z,20.00
2017-10-22T00:24:58.494Z,20.00
2017-10-22T00:26:03.496Z,20.00
2017-10-22T00:27:08.457Z,20.00
2017-10-22T00:28:13.274Z,20.00
2017-10-22T00:29:17.933Z,20.00
2017-10-22T00:30:22.858Z,20.00
2017-10-22T00:31:27.733Z,20.00
2017-10-22T00:32:32.702Z,20.00
2017-10-22T00:33:37.534Z,19.90
2017-10-22T00:34:42.515Z,19.90
2017-10-22T00:35:47.221Z,19.90
2017-10-22T00:36:52.026Z,19.90
2017-10-22T00:37:56.657Z,19.90
2017-10-22T00:39:01.520Z,19.90
2017-10-22T00:40:06.208Z,19.90
2017-10-22T00:41:10.970Z,19.90
2017-10-22T00:42:15.800Z,19.90
2017-10-22T00:43:20.488Z,19.90
2017-10-22T00:44:25.161Z,19.90
2017-10-22T00:45:30.172Z,19.90
2017-10-22T00:46:35.163Z,19.90
2017-10-22T00:47:39.839Z,19.90
2017-10-22T00:48:44.687Z,19.90
2017-10-22T00:49:49.407Z,19.90
2017-10-22T00:50:54.097Z,19.90
2017-10-22T00:51:58.895Z,19.90
2017-10-22T00:53:03.828Z,19.90
2017-10-22T00:54:08.634Z,19.90
2017-10-22T00:55:13.537Z,19.90
2017-10-22T00:56:18.392Z,19.90
2017-10-22T00:57:23.040Z,19.90
2017-10-22T00:58:27.818Z,19.90
2017-10-22T00:59:32.428Z,19.90
2017-10-22T01:00:37.373Z,19.90
2017-10-22T01:01:42.314Z,19.80
2017-10-22T01:02:47.123Z,19.90
2017-10-22T01:03:52.098Z,19.90
2017-10-22T01:04:56.809Z,19.90
2017-10-22T01:06:01.509Z,19.90
2017-10-22T01:07:06.212Z,19.90
2017-10-22T01:08:11.150Z,19.90
2017-10-22T01:09:15.995Z,19.80
2017-10-22T01:10:20.818Z,19.80
2017-10-22T01:11:25.710Z,19.80
2017-10-22T01:12:30.518Z,19.80
2017-10-22T01:13:35.451Z,19.80
2017-10-22T01:14:40.280Z,19.80
2017-10-22T01:15:45.106Z,19.80
2017-10-22T01:16:50.018Z,19.80
2017-10-22T01:17:54.869Z,19.80
2017-10-22T01:18:59.672Z,19.80
2017-10-22T01:20:04.345Z,19.80
2017-10-22T01:21:09.150Z,19.80
2017-10-22T01:22:14.004Z,19.80
2017-10-22T01:23:18.773Z,19.80
2017-10-22T01:24:23.566Z,19.80
2017-10-22T01:25:28.388Z,19.80
2017-10-22T01:26:33.350Z,19.80
2017-10-22T01:27:38.279Z,19.80
2017-10-22T01:28:43.123Z,19.80
2017-10-22T01:29:47.919Z,19.80
2017-10-22T01:30:52.723Z,19.80
2017-10-22T01:31:57.398Z,19.80
2017-10-22T01:33:02.249Z,19.80
2017-10-22T01:34:06.925Z,19.80
2017-10-22T01:35:11.836Z,19.80
2017-10-22T01:36:16.637Z,19.80
2017-10-22T01:37:21.315Z,19.80
2017-10-22T01:38:26.060Z,19.80
2017-10-22T01:39:30.836Z,19.80
2017-10-22T01:40:35.613Z,19.80
2017-10-22T01:41:40.500Z,19.80
2017-10-22T01:42:45.394Z,19.80
2017-10-22T01:43:50.347Z,19.80
2017-10-22T01:44:55.311Z,19.80
2017-10-22T01:46:00.211Z,19.80
2017-10-22T01:47:05.000Z,19.80
2017-10-22T01:48:09.642Z,19.80
2017-10-22T01:49:14.494Z,19.80
2017-10-22T01:50:19.323Z,19.80
2017-10-22T01:51:24.258Z,19.80
2017-10-22T01:52:29.023Z,19.80
2017-10-22T01:53:33.741Z,19.80
2017-10-22T01:54:38.720Z,19.80
2017-10-22T01:55:43.485Z,19.80
2017-10-22T01:56:48.278Z,19.80
2017-10-22T01:57:52.974Z,19.80
2017-10-22T01:58:57.740Z,19.80
2017-10-22T02:00:02.708Z,19.80
2017-10-22T02:01:07.629Z,19.80
2017-10-22T02:02:12.669Z,19.80
2017-10-22T02:03:17.442Z,19.80
2017-10-22T02:04:22.114Z,19.80
2017-10-22T02:05:26.910Z,19.80
2017-10-22T02:06:31.726Z,19.80
2017-10-22T02:07:36.542Z,19.80
2017-10-22T02:08:41.462Z,19.80
2017-10-22T02:09:46.420Z,19.80
2017-10-22T02:10:51.210Z,19.80
2017-10-22T02:11:56.126Z,19.80
2017-10-22T02:13:00.937Z,19.70
2017-10-22T02:14:05.608Z,19.70
2017-10-22T02:15:10.414Z,19.70
2017-10-22T02:16:15.099Z,19.80
2017-10-22T02:17:19.763Z,19.70
2017-10-22T02:18:24.563Z,19.70
2017-10-22T02:19:29.398Z,19.70
2017-10-22T02:20:34.267Z,19.70
2017-10-22T02:21:39.006Z,19.70
2017-10-22T02:22:43.714Z,19.70
2017-10-22T02:23:48.519Z,19.70
2017-10-22T02:24:53.415Z,19.70
2017-10-22T02:25:58.359Z,19.70
2017-10-22T02:27:03.030Z,19.70
2017-10-22T02:28:07.779Z,19.70
2017-10-22T02:29:12.674Z,19.70
2017-10-22T02:30:17.636Z,19.70
2017-10-22T02:31:22.479Z,19.70
2017-10-22T02:32:27.306Z,19.70
2017-10-22T02:33:32.201Z,19.70
2017-10-22T02:34:37.064Z,19.70
2017-10-22T02:35:42.033Z,19.70
2017-10-22T02:36:46.882Z,19.70
2017-10-22T02:37:51.584Z,19.70
2017-10-22T02:38:56.382Z,19.70
2017-10-22T02:40:01.305Z,19.70
2017-10-22T02:41:06.156Z,19.70
2017-10-22T02:42:10.889Z,19.70
2017-10-22T02:43:15.807Z,19.70
2017-10-22T02:44:20.767Z,19.70
2017-10-22T02:45:25.467Z,19.70
2017-10-22T02:46:30.171Z,19.70
2017-10-22T02:47:34.812Z,19.70
2017-10-22T02:48:39.743Z,19.70
2017-10-22T02:49:44.728Z,19.70
2017-10-22T02:50:49.549Z,19.70
2017-10-22T02:51:54.506Z,19.70
2017-10-22T02:52:59.396Z,19.70
2017-10-22T02:54:04.127Z,19.70
2017-10-22T02:55:09.095Z,19.70
2017-10-22T02:56:14.149Z,19.70
2017-10-22T02:57:18.949Z,19.70
2017-10-22T02:58:23.801Z,19.70
2017-10-22T02:59:28.505Z,19.70
2017-10-22T03:00:33.223Z,19.70
2017-10-22T03:01:38.070Z,19.70
2017-10-22T03:02:42.854Z,19.70
2017-10-22T03:03:47.667Z,19.70
2017-10-22T03:04:52.536Z,19.70
2017-10-22T03:05:57.352Z,19.70
2017-10-22T03:07:02.038Z,19.70
2017-10-22T03:08:07.009Z,19.70
2017-10-22T03:09:11.983Z,19.70
2017-10-22T03:10:16.923Z,19.70
2017-10-22T03:11:21.796Z,19.70
2017-10-22T03:12:26.632Z,19.70
2017-10-22T03:13:31.439Z,19.70
2017-10-22T03:14:36.203Z,19.70
2017-10-22T03:15:41.033Z,19.70
2017-10-22T03:16:45.844Z,19.60
2017-10-22T03:17:50.864Z,19.60
2017-10-22T03:18:55.643Z,19.60
2017-10-22T03:20:00.343Z,19.60
2017-10-22T03:21:05.433Z,19.60
2017-10-22T03:22:10.934Z,19.60
2017-10-22T03:23:16.331Z,19.60
2017-10-22T03:24:21.532Z,19.60
2017-10-22T03:25:27.919Z,19.60
2017-10-22T03:26:32.922Z,19.60
2017-10-22T03:27:38.284Z,19.70
2017-10-22T03:28:43.574Z,19.60
2017-10-22T03:29:48.712Z,19.70
2017-10-22T03:30:53.744Z,19.70
2017-10-22T03:31:59.018Z,19.70
2017-10-22T03:33:04.123Z,19.70
2017-10-22T03:34:09.154Z,19.70
2017-10-22T03:35:14.215Z,19.70
2017-10-22T03:36:19.243Z,19.70
2017-10-22T03:37:24.247Z,19.70
2017-10-22T03:38:29.254Z,19.70
2017-10-22T03:39:34.291Z,19.70
2017-10-22T03:40:39.328Z,19.70
2017-10-22T03:41:44.509Z,19.70
2017-10-22T03:42:49.511Z,19.70
2017-10-22T03:43:54.600Z,19.70
2017-10-22T03:44:59.452Z,19.60
2017-10-22T03:46:04.695Z,19.60
2017-10-22T03:47:09.745Z,19.70
2017-10-22T03:48:14.900Z,19.60
2017-10-22T03:49:19.965Z,19.60
2017-10-22T03:50:25.133Z,19.60
2017-10-22T03:51:30.419Z,19.60
2017-10-22T03:52:35.644Z,19.60
2017-10-22T03:53:40.637Z,19.60
2017-10-22T03:54:45.755Z,19.60
2017-10-22T03:55:50.708Z,19.60
2017-10-22T03:56:55.712Z,19.60
2017-10-22T03:58:00.659Z,19.60
2017-10-22T03:59:05.910Z,19.60
2017-10-22T04:00:11.056Z,19.60
2017-10-22T04:01:16.264Z,19.60
2017-10-22T04:02:21.580Z,19.60
2017-10-22T04:03:28.075Z,19.60
2017-10-22T04:04:33.190Z,19.60
2017-10-22T04:05:38.350Z,19.60
2017-10-22T04:06:43.478Z,19.60
2017-10-22T04:07:48.675Z,19.60
2017-10-22T04:08:53.762Z,19.60
2017-10-22T04:09:58.660Z,19.60
2017-10-22T04:11:03.851Z,19.60
2017-10-22T04:12:08.897Z,19.60
2017-10-22T04:13:14.127Z,19.60
2017-10-22T04:14:19.572Z,19.60
2017-10-22T04:15:24.837Z,19.60
2017-10-22T04:16:29.926Z,19.60
2017-10-22T04:17:35.997Z,19.60
2017-10-22T04:18:40.953Z,19.60
2017-10-22T04:19:46.099Z,19.60
2017-10-22T04:20:51.290Z,19.60
2017-10-22T04:21:56.574Z,19.60
2017-10-22T04:23:02.003Z,19.60
2017-10-22T04:24:07.301Z,19.60
2017-10-22T04:25:12.349Z,19.60
2017-10-22T04:26:17.266Z,19.60
2017-10-22T04:27:22.414Z,19.60
2017-10-22T04:28:27.702Z,19.60
2017-10-22T04:29:32.821Z,19.60
2017-10-22T04:30:38.159Z,19.60
2017-10-22T04:31:43.414Z,19.60
2017-10-22T04:32:48.512Z,19.60
2017-10-22T04:33:53.729Z,19.60
2017-10-22T04:34:59.008Z,19.60
2017-10-22T04:36:04.457Z,19.60
2017-10-22T04:37:10.693Z,19.60
2017-10-22T04:38:16.100Z,19.60
2017-10-22T04:39:21.618Z,19.60
2017-10-22T04:40:26.742Z,19.60
2017-10-22T04:41:31.928Z,19.60
2017-10-22T04:42:37.259Z,19.60
2017-10-22T04:43:42.476Z,19.60
2017-10-22T04:44:47.582Z,19.60
2017-10-22T04:45:52.850Z,19.70
2017-10-22T04:46:57.919Z,19.60
2017-10-22T04:48:03.140Z,19.60
2017-10-22T04:49:08.330Z,19.60
2017-10-22T04:50:13.697Z,19.60
2017-10-22T04:51:20.029Z,19.60
2017-10-22T04:52:25.422Z,19.60
2017-10-22T04:53:30.523Z,19.60
2017-10-22T04:54:35.870Z,19.60
2017-10-22T04:55:41.223Z,19.60
2017-10-22T04:56:46.678Z,19.60
2017-10-22T04:57:51.988Z,19.60
2017-10-22T04:58:57.218Z,19.60
2017-10-22T05:00:02.845Z,19.60
2017-10-22T05:01:08.013Z,19.60
2017-10-22T05:02:13.205Z,19.60
2017-10-22T05:03:18.602Z,19.60
2017-10-22T05:04:23.898Z,19.60
2017-10-22T05:05:29.238Z,19.60
2017-10-22T05:06:34.594Z,19.60
2017-10-22T05:07:40.042Z,19.60
2017-10-22T05:08:45.285Z,19.60
2017-10-22T05:09:50.563Z,19.60
2017-10-22T05:10:57.093Z,19.60
2017-10-22T05:12:02.527Z,19.60
2017-10-22T05:13:07.690Z,19.60
2017-10-22T05:14:12.778Z,19.60
2017-10-22T05:15:18.129Z,19.60
2017-10-22T05:16:23.613Z,19.60
2017-10-22T05:17:28.833Z,19.60
2017-10-22T05:18:35.083Z,19.70
2017-10-22T05:19:40.225Z,19.60
2017-10-22T05:20:45.489Z,19.60
2017-10-22T05:21:50.617Z,19.60
2017-10-22T05:22:55.759Z,19.60
2017-10-22T05:24:01.045Z,19.60
2017-10-22T05:25:06.324Z,19.60
2017-10-22T05:26:11.666Z,19.60
2017-10-22T05:27:16.787Z,19.60
2017-10-22T05:28:22.153Z,19.60
2017-10-22T05:29:27.552Z,19.60
2017-10-22T05:30:32.936Z,19.60
2017-10-22T05:31:38.105Z,19.60
2017-10-22T05:32:43.501Z,19.50
2017-10-22T05:33:48.855Z,19.60
2017-10-22T05:34:54.978Z,19.60
2017-10-22T05:36:00.290Z,19.60
2017-10-22T05:37:05.747Z,19.50
2017-10-22T05:38:11.126Z,19.50
2017-10-22T05:39:16.461Z,19.60
2017-10-22T05:40:23.010Z,19.60
2017-10-22T05:41:28.660Z,19.50
2017-10-22T05:42:33.932Z,19.60
2017-10-22T05:43:39.209Z,19.60
2017-10-22T05:44:44.700Z,19.60
2017-10-22T05:45:50.157Z,19.60
2017-10-22T05:46:56.311Z,19.60
2017-10-22T05:48:01.746Z,19.70
2017-10-22T05:49:07.150Z,19.70
2017-10-22T05:50:12.502Z,19.70
2017-10-22T05:51:17.622Z,19.70
2017-10-22T05:52:23.106Z,19.70
2017-10-22T05:53:28.611Z,19.70
2017-10-22T05:54:33.920Z,19.70
2017-10-22T05:55:39.187Z,19.70
2017-10-22T05:56:44.998Z,19.70
2017-10-22T05:57:50.274Z,19.60
2017-10-22T05:58:55.390Z,19.70
2017-10-22T06:00:02.045Z,19.70
2017-10-22T06:01:08.064Z,19.60
2017-10-22T06:02:13.444Z,19.60
2017-10-22T06:03:18.733Z,19.60
2017-10-22T06:04:23.981Z,19.70
2017-10-22T06:05:29.616Z,19.70
2017-10-22T06:06:35.124Z,19.70
2017-10-22T06:07:40.361Z,19.70
2017-10-22T06:08:46.677Z,19.70
2017-10-22T06:09:51.977Z,19.70
2017-10-22T06:10:57.451Z,19.70
2017-10-22T06:12:02.686Z,19.80
2017-10-22T06:13:07.916Z,19.80
2017-10-22T06:14:13.396Z,19.80
2017-10-22T06:15:20.202Z,19.80
2017-10-22T06:16:25.650Z,19.70
2017-10-22T06:17:30.940Z,19.80
2017-10-22T06:18:36.070Z,19.80
2017-10-22T06:19:41.539Z,19.80
2017-10-22T06:20:46.723Z,19.80
2017-10-22T06:21:52.328Z,19.80
2017-10-22T06:22:57.749Z,19.80
2017-10-22T06:24:03.397Z,19.80
2017-10-22T06:25:09.226Z,19.80
2017-10-22T06:26:14.496Z,19.80
2017-10-22T06:27:19.795Z,19.80
2017-10-22T06:28:25.339Z,19.80
2017-10-22T06:29:30.925Z,19.80
2017-10-22T06:30:36.174Z,19.80
2017-10-22T06:31:42.371Z,19.70
2017-10-22T06:32:47.889Z,19.70
2017-10-22T06:33:53.224Z,19.80
2017-10-22T06:34:58.485Z,19.80
2017-10-22T06:36:03.902Z,19.70
2017-10-22T06:37:09.205Z,19.70
2017-10-22T06:38:14.554Z,19.70
2017-10-22T06:39:19.885Z,19.70
2017-10-22T06:40:25.124Z,19.70
2017-10-22T06:41:30.283Z,19.60
2017-10-22T06:42:35.557Z,19.60
2017-10-22T06:43:40.974Z,19.50
2017-10-22T06:44:47.698Z,19.50
2017-10-22T06:45:54.343Z,19.50
2017-10-22T06:46:59.579Z,19.50
2017-10-22T06:48:04.860Z,19.50
2017-10-22T06:49:10.087Z,19.50
2017-10-22T06:50:15.384Z,19.50
2017-10-22T06:51:21.036Z,19.50
2017-10-22T06:52:27.171Z,19.50
2017-10-22T06:53:32.518Z,19.50
2017-10-22T06:54:38.842Z,19.50
2017-10-22T06:55:44.161Z,19.50
2017-10-22T06:56:49.464Z,19.50
2017-10-22T06:57:55.712Z,19.40
2017-10-22T06:59:01.999Z,19.50
2017-10-22T07:00:07.991Z,19.50
2017-10-22T07:01:13.424Z,19.50
2017-10-22T07:02:18.620Z,19.50
2017-10-22T07:03:24.027Z,19.50
2017-10-22T07:04:33.387Z,19.50
2017-10-22T07:05:40.172Z,19.50
2017-10-22T07:06:45.426Z,19.60
2017-10-22T07:07:50.767Z,19.60
2017-10-22T07:08:59.037Z,19.60
2017-10-22T07:10:04.549Z,19.60
2017-10-22T07:11:16.752Z,19.60
2017-10-22T07:12:30.952Z,19.60
2017-10-22T07:13:37.627Z,19.60
2017-10-22T07:14:43.355Z,19.60
2017-10-22T07:15:49.271Z,19.60
2017-10-22T07:16:54.866Z,19.60
2017-10-22T07:18:00.594Z,19.60
2017-10-22T07:19:06.456Z,19.60
2017-10-22T07:20:12.181Z,19.70
2017-10-22T07:21:17.579Z,19.70
2017-10-22T07:22:23.165Z,19.70
2017-10-22T07:23:28.670Z,19.70
2017-10-22T07:24:34.382Z,19.70
2017-10-22T07:25:40.295Z,19.60
2017-10-22T07:26:45.735Z,19.60
2017-10-22T07:27:51.139Z,19.60
2017-10-22T07:28:57.936Z,19.70
2017-10-22T07:30:09.827Z,19.70
2017-10-22T07:31:15.912Z,19.70
2017-10-22T07:32:21.288Z,19.70
2017-10-22T07:33:26.633Z,19.60
2017-10-22T07:34:32.518Z,19.60
2017-10-22T07:35:38.296Z,19.50
2017-10-22T07:36:44.034Z,19.50
2017-10-22T07:37:49.800Z,19.50
2017-10-22T07:38:55.344Z,19.50
2017-10-22T07:40:01.402Z,19.40
2017-10-22T07:41:07.337Z,19.40
2017-10-22T07:42:13.950Z,19.50
2017-10-22T07:43:19.620Z,19.50
2017-10-22T07:44:25.051Z,19.50
2017-10-22T07:45:30.385Z,19.40
2017-10-22T07:46:36.023Z,19.50
2017-10-22T07:47:41.504Z,19.50
2017-10-22T07:48:47.068Z,19.50
2017-10-22T07:49:52.634Z,19.50
2017-10-22T07:50:58.286Z,19.50
2017-10-22T07:52:03.765Z,19.50
2017-10-22T07:53:09.157Z,19.50
2017-10-22T07:54:14.590Z,19.50
2017-10-22T07:55:20.621Z,19.50
2017-10-22T07:56:26.192Z,19.60
2017-10-22T07:57:31.373Z,19.50
2017-10-22T07:58:36.637Z,19.50
2017-10-22T07:59:42.060Z,19.60
2017-10-22T08:00:47.439Z,19.50
2017-10-22T08:01:52.770Z,19.50
2017-10-22T08:02:57.944Z,19.50
2017-10-22T08:04:03.467Z,19.60
2017-10-22T08:05:08.828Z,19.60
2017-10-22T08:06:14.447Z,19.60
2017-10-22T08:07:19.974Z,19.50
2017-10-22T08:08:25.382Z,19.50
2017-10-22T08:09:31.136Z,19.50
2017-10-22T08:10:38.021Z,19.50
2017-10-22T08:11:43.584Z,19.50
2017-10-22T08:12:49.137Z,19.50
2017-10-22T08:13:54.543Z,19.50
2017-10-22T08:14:59.962Z,19.60
2017-10-22T08:16:05.864Z,19.60
2017-10-22T08:17:11.746Z,19.60
2017-10-22T08:18:17.377Z,19.70
2017-10-22T08:19:22.912Z,19.70
2017-10-22T08:20:28.287Z,19.80
2017-10-22T08:21:34.128Z,19.80
2017-10-22T08:22:39.757Z,19.90
2017-10-22T08:23:45.065Z,19.90
2017-10-22T08:24:50.578Z,19.90
2017-10-22T08:25:57.085Z,19.80
2017-10-22T08:27:02.868Z,19.80
2017-10-22T08:28:08.276Z,19.80
2017-10-22T08:29:13.703Z,19.70
2017-10-22T08:30:20.009Z,19.70
2017-10-22T08:31:26.208Z,19.70
2017-10-22T08:32:32.425Z,19.60
2017-10-22T08:33:39.724Z,19.50
2017-10-22T08:34:46.102Z,19.50
2017-10-22T08:35:52.497Z,19.40
2017-10-22T08:36:58.957Z,19.40
2017-10-22T08:38:05.764Z,19.30
2017-10-22T08:39:12.540Z,19.30
2017-10-22T08:40:18.758Z,19.30
2017-10-22T08:41:25.240Z,19.30
2017-10-22T08:42:34.056Z,19.30
2017-10-22T08:49:32.539Z,19.30
2017-10-22T08:50:38.667Z,19.20
2017-10-22T08:51:46.217Z,19.20
2017-10-22T08:52:52.005Z,19.20
2017-10-22T08:53:58.182Z,19.30
2017-10-22T08:55:04.930Z,19.30
2017-10-22T08:56:11.227Z,19.30
2017-10-22T08:57:17.530Z,19.30
2017-10-22T08:58:23.671Z,19.30
2017-10-22T08:59:30.728Z,19.30
2017-10-22T09:00:37.698Z,19.30
2017-10-22T09:01:44.009Z,19.30
2017-10-22T09:02:52.901Z,19.30
2017-10-22T09:04:00.794Z,19.40
2017-10-22T09:05:07.978Z,19.40
2017-10-22T09:06:13.597Z,19.40
2017-10-22T09:07:19.249Z,19.50
2017-10-22T09:08:24.919Z,19.50
2017-10-22T09:09:30.593Z,19.50
2017-10-22T09:10:36.045Z,19.50
2017-10-22T09:11:41.366Z,19.50
2017-10-22T09:12:47.781Z,19.50
2017-10-22T09:13:53.610Z,19.50
2017-10-22T09:14:58.957Z,19.50
2017-10-22T09:16:05.552Z,19.50
2017-10-22T09:17:11.534Z,19.50
2017-10-22T09:18:18.063Z,19.50
2017-10-22T09:19:24.367Z,19.50
2017-10-22T09:20:30.779Z,19.50
2017-10-22T09:21:37.196Z,19.50
2017-10-22T09:22:43.923Z,19.50
2017-10-22T09:23:50.113Z,19.50
2017-10-22T09:24:56.133Z,19.50
2017-10-22T09:26:01.986Z,19.60
2017-10-22T09:27:08.104Z,19.60
2017-10-22T09:28:14.136Z,19.60
2017-10-22T09:29:22.676Z,19.60
2017-10-22T09:30:31.309Z,19.60
2017-10-22T09:31:41.538Z,19.60
2017-10-22T09:32:50.267Z,19.60
2017-10-22T09:33:58.980Z,19.50
2017-10-22T09:35:08.345Z,19.50
2017-10-22T09:36:19.478Z,19.60
2017-10-22T09:37:28.724Z,19.50
2017-10-22T09:38:36.432Z,19.50
2017-10-22T09:39:45.276Z,19.50
2017-10-22T09:40:54.207Z,19.50
2017-10-22T09:42:02.877Z,19.50
2017-10-22T09:43:12.455Z,19.50
2017-10-22T09:44:21.095Z,19.50
2017-10-22T09:45:28.851Z,19.50
2017-10-22T09:46:36.966Z,19.50
2017-10-22T09:47:45.436Z,19.50
2017-10-22T09:48:53.460Z,19.50
2017-10-22T09:50:04.665Z,19.50
2017-10-22T09:51:14.208Z,19.50
2017-10-22T09:52:25.783Z,19.50
2017-10-22T09:53:42.513Z,19.50
2017-10-22T09:54:11.069Z,19.50
2017-10-22T09:55:31.894Z,19.50
2017-10-22T09:56:41.573Z,19.60
2017-10-22T09:57:51.713Z,19.60
2017-10-22T09:59:32.598Z,19.60
2017-10-22T10:00:42.045Z,19.60
2017-10-22T10:01:52.692Z,19.70
2017-10-22T10:03:02.223Z,19.70
2017-10-22T10:04:13.286Z,19.70
2017-10-22T10:05:25.008Z,19.70
2017-10-22T10:06:33.244Z,19.70
2017-10-22T10:07:40.928Z,19.70
2017-10-22T10:08:48.478Z,19.70
2017-10-22T10:09:56.077Z,19.70
2017-10-22T10:11:03.578Z,19.70
2017-10-22T10:12:11.081Z,19.70
2017-10-22T10:13:24.514Z,19.70
2017-10-22T10:14:35.038Z,19.70
2017-10-22T10:15:42.506Z,19.70
2017-10-22T10:16:50.445Z,19.70
2017-10-22T10:18:02.402Z,19.70
2017-10-22T10:19:13.667Z,19.70
2017-10-22T10:20:21.763Z,19.70
2017-10-22T10:21:30.179Z,19.70
2017-10-22T10:22:45.324Z,19.70
2017-10-22T10:23:51.929Z,19.70
2017-10-22T10:25:41.618Z,19.70
2017-10-22T10:27:15.758Z,19.70
2017-10-22T10:28:24.127Z,19.60
2017-10-22T10:29:44.470Z,19.60
2017-10-22T10:30:57.782Z,19.60
2017-10-22T10:32:09.901Z,19.60
2017-10-22T10:33:20.165Z,19.60
2017-10-22T10:34:32.223Z,19.60
2017-10-22T10:35:40.948Z,19.60
2017-10-22T10:36:53.654Z,19.60
2017-10-22T10:38:06.233Z,19.60
2017-10-22T10:39:31.868Z,19.60
2017-10-22T10:40:46.798Z,19.60
2017-10-22T10:41:56.547Z,19.60
2017-10-22T10:43:04.569Z,19.60
2017-10-22T10:44:11.326Z,19.60
2017-10-22T10:45:17.184Z,19.60
2017-10-22T10:46:22.612Z,19.60
2017-10-22T10:47:28.040Z,19.60
2017-10-22T10:48:33.093Z,19.60
2017-10-22T10:49:38.405Z,19.60
2017-10-22T10:50:43.905Z,19.60
2017-10-22T10:51:49.293Z,19.60
2017-10-22T10:52:54.874Z,19.50
2017-10-22T10:54:00.228Z,19.40
2017-10-22T10:55:05.300Z,19.30
2017-10-22T10:56:10.682Z,19.20
2017-10-22T10:57:15.621Z,19.20
2017-10-22T10:58:21.692Z,19.10
2017-10-22T10:59:27.072Z,19.10
2017-10-22T11:00:33.614Z,19.00
2017-10-22T11:01:38.955Z,19.00
2017-10-22T11:02:46.709Z,19.00
2017-10-22T11:03:52.865Z,19.00
2017-10-22T11:04:58.186Z,18.90
2017-10-22T11:06:05.223Z,18.90
2017-10-22T11:07:10.474Z,18.90
2017-10-22T11:08:15.848Z,18.90
2017-10-22T11:09:21.157Z,18.90
2017-10-22T11:10:26.389Z,18.90
2017-10-22T11:11:31.683Z,18.90
2017-10-22T11:12:36.831Z,18.80
2017-10-22T11:13:42.042Z,18.80
2017-10-22T11:14:47.494Z,18.80
2017-10-22T11:15:53.020Z,18.80
2017-10-22T11:16:58.275Z,18.80
2017-10-22T11:18:03.416Z,18.70
2017-10-22T11:19:08.626Z,18.70
2017-10-22T11:20:13.955Z,18.70
2017-10-22T11:21:19.514Z,18.70
2017-10-22T11:22:25.953Z,18.70
2017-10-22T11:23:31.960Z,18.70
2017-10-22T11:24:37.634Z,18.70
2017-10-22T11:25:43.196Z,18.70
2017-10-22T11:26:48.707Z,18.70
2017-10-22T11:27:54.606Z,18.70
2017-10-22T11:28:59.913Z,18.70
2017-10-22T11:30:04.950Z,18.70
2017-10-22T11:31:11.376Z,18.70
2017-10-22T11:32:16.312Z,18.70
2017-10-22T11:33:21.405Z,18.70
2017-10-22T11:34:26.547Z,18.70
2017-10-22T11:35:32.779Z,18.70
2017-10-22T11:36:38.134Z,18.70
2017-10-22T11:37:43.317Z,18.70
2017-10-22T11:38:48.572Z,18.70
2017-10-22T11:39:53.437Z,18.70
2017-10-22T11:40:58.453Z,18.70
2017-10-22T11:42:03.421Z,18.70
2017-10-22T11:43:09.057Z,18.80
2017-10-22T11:44:14.216Z,18.90
2017-10-22T11:45:19.196Z,19.00
2017-10-22T11:46:24.321Z,19.10
2017-10-22T11:47:29.748Z,19.10
2017-10-22T11:48:36.428Z,19.20
2017-10-22T11:49:42.379Z,19.20
2017-10-22T11:50:47.353Z,19.30
2017-10-22T11:51:53.203Z,19.30
2017-10-22T11:52:58.182Z,19.30
2017-10-22T11:54:03.207Z,19.30
2017-10-22T11:55:08.279Z,19.40
2017-10-22T11:56:14.734Z,19.40
2017-10-22T11:57:19.641Z,19.40
2017-10-22T11:58:25.241Z,19.40
2017-10-22T11:59:30.668Z,19.40
2017-10-22T12:00:35.760Z,19.50
2017-10-22T12:01:41.129Z,19.50
2017-10-22T12:02:46.362Z,19.50
2017-10-22T12:03:51.514Z,19.50
2017-10-22T12:04:56.939Z,19.50
2017-10-22T12:06:02.954Z,19.50
2017-10-22T12:07:08.007Z,19.50
2017-10-22T12:08:13.085Z,19.50
2017-10-22T12:09:17.985Z,19.50
2017-10-22T12:10:23.628Z,19.50
2017-10-22T12:11:30.002Z,19.50
2017-10-22T12:12:34.894Z,19.50
2017-10-22T12:13:39.808Z,19.50
2017-10-22T12:14:44.922Z,19.50
2017-10-22T12:15:50.109Z,19.50
2017-10-22T12:16:55.565Z,19.50
2017-10-22T12:18:00.528Z,19.60
2017-10-22T12:19:06.141Z,19.60
2017-10-22T12:20:11.170Z,19.60
2017-10-22T12:21:16.504Z,19.60
2017-10-22T12:22:21.384Z,19.60
2017-10-22T12:23:26.604Z,19.60
2017-10-22T12:24:31.767Z,19.60
2017-10-22T12:25:37.161Z,19.60
2017-10-22T12:26:42.298Z,19.60
2017-10-22T12:27:47.408Z,19.60
2017-10-22T12:28:52.326Z,19.60
2017-10-22T12:29:57.382Z,19.60
2017-10-22T12:31:02.385Z,19.60
2017-10-22T12:32:07.498Z,19.60
2017-10-22T12:33:12.602Z,19.70
2017-10-22T12:34:17.581Z,19.70
2017-10-22T12:35:22.603Z,19.70
2017-10-22T12:36:27.547Z,19.70
2017-10-22T12:37:32.417Z,19.70
2017-10-22T12:38:37.408Z,19.70
2017-10-22T12:39:42.480Z,19.70
2017-10-22T12:40:47.562Z,19.70
2017-10-22T12:41:52.682Z,19.70
2017-10-22T12:42:57.643Z,19.70
2017-10-22T12:44:02.455Z,19.70
2017-10-22T12:45:07.643Z,19.70
2017-10-22T12:46:12.897Z,19.70
2017-10-22T12:47:18.199Z,19.70
2017-10-22T12:48:23.535Z,19.70
2017-10-22T12:49:28.721Z,19.70
2017-10-22T12:50:33.832Z,19.70
2017-10-22T12:51:38.922Z,19.70
2017-10-22T12:52:44.075Z,19.70
2017-10-22T12:53:49.538Z,19.70
2017-10-22T12:54:54.666Z,19.70
2017-10-22T12:55:59.688Z,19.70
2017-10-22T12:57:04.932Z,19.70
2017-10-22T12:58:09.753Z,19.70
2017-10-22T12:59:14.960Z,19.70
2017-10-22T13:00:20.580Z,19.70
2017-10-22T13:01:25.568Z,19.70
2017-10-22T13:02:30.506Z,19.70
2017-10-22T13:03:35.751Z,19.70
2017-10-22T13:04:40.819Z,19.70
2017-10-22T13:05:45.769Z,19.70
2017-10-22T13:06:50.748Z,19.70
2017-10-22T13:07:55.734Z,19.70
2017-10-22T13:09:00.639Z,19.70
2017-10-22T13:10:05.619Z,19.70
2017-10-22T13:11:10.559Z,19.70
2017-10-22T13:12:15.494Z,19.70
2017-10-22T13:13:20.348Z,19.70
2017-10-22T13:14:25.270Z,19.70
2017-10-22T13:15:30.584Z,19.70
2017-10-22T13:16:35.573Z,19.70
2017-10-22T13:17:40.404Z,19.80
2017-10-22T13:18:45.367Z,19.80
2017-10-22T13:19:50.623Z,19.80
2017-10-22T13:20:55.469Z,19.90
2017-10-22T13:22:00.658Z,19.90
2017-10-22T13:23:05.559Z,20.00
2017-10-22T13:24:10.412Z,20.00
2017-10-22T13:25:15.142Z,20.00
2017-10-22T13:26:20.227Z,20.00
2017-10-22T13:27:25.188Z,20.00
2017-10-22T13:28:30.104Z,20.10
2017-10-22T13:29:35.116Z,20.00
2017-10-22T13:30:39.922Z,20.10
2017-10-22T13:31:44.890Z,20.10
2017-10-22T13:32:49.926Z,20.20
2017-10-22T13:33:55.160Z,20.20
2017-10-22T13:35:00.234Z,20.20
2017-10-22T13:36:05.241Z,20.30
2017-10-22T13:37:10.093Z,20.30
2017-10-22T13:38:14.914Z,20.30
2017-10-22T13:39:19.903Z,20.40
2017-10-22T13:40:24.916Z,20.40
2017-10-22T13:41:29.917Z,20.40
2017-10-22T13:42:34.927Z,20.40
2017-10-22T13:43:39.867Z,20.50
2017-10-22T13:44:44.624Z,20.50
2017-10-22T13:45:49.532Z,20.50
2017-10-22T13:46:54.393Z,20.50
2017-10-22T13:47:59.351Z,20.50
2017-10-22T13:49:04.307Z,20.50
2017-10-22T13:50:09.325Z,20.60
2017-10-22T13:51:14.484Z,20.60
2017-10-22T13:52:19.510Z,20.60
2017-10-22T13:53:24.528Z,20.60
2017-10-22T13:54:29.740Z,20.70
2017-10-22T13:55:34.935Z,20.70
2017-10-22T13:56:39.733Z,20.70
2017-10-22T13:57:44.877Z,20.70
2017-10-22T13:58:49.820Z,20.70
2017-10-22T13:59:54.742Z,20.70
2017-10-22T14:00:59.817Z,20.70
2017-10-22T14:02:04.719Z,20.70
2017-10-22T14:03:09.794Z,20.70
2017-10-22T14:04:14.783Z,20.70
2017-10-22T14:05:19.897Z,20.70
2017-10-22T14:06:25.023Z,20.70
2017-10-22T14:07:30.148Z,20.60
2017-10-22T14:08:35.260Z,20.60
2017-10-22T14:09:40.185Z,20.60
2017-10-22T14:10:45.554Z,20.60
2017-10-22T14:11:50.553Z,20.60
2017-10-22T14:12:55.602Z,20.60